Terminal Aerodrome Forecast
Issued by NWS

Home | Current Version | Previous Version | Text Only | Print | Product List | Glossary On
Versions: 1 2 3 4 5 6 7 8 9 10 11 12 13
120
FTUS46 KSEW 301120
TAFBFI
TAF
KBFI 301120Z 3012/3112 00000KT P6SM FEW016 BKN070
      TEMPO 3013/3017 BKN016 BKN070
     FM301900 20007KT P6SM SCT070
     FM310500 17006KT P6SM BKN060
     FM311000 17006KT P6SM OVC020=

USA.gov is the U.S. government's official web portal to all federal, state and local government web resources and services.